Time;durP1;ratioP1;P1;durP2;ratioP2;P2;SDS_P1;SDS_P2;PMS_P1;PMS_P2;Temp;Humidity;BMP_temperature;BMP_pressure;BME280_temperature;BME280_humidity;BME280_pressure;Samples;Min_cycle;Max_cycle;Signal;HPM_P1;HPM_P2
2022/03/28 00:00:05;;;;;;;;;;;;;;;12.73;35.44;100719.69;4492072;31;33775;-64
2022/03/28 00:02:40;;;;;;;;;;;;;;;12.98;34.79;100718.87;4482295;31;33998;-63
2022/03/28 00:05:08;;;;;;;;;;;;;;;12.88;35.05;100712.41;4481758;31;34118;-63
2022/03/28 00:07:35;;;;;;;;;;;;;;;13.08;34.32;100714.56;4487951;31;33583;-64
2022/03/28 00:10:03;;;;;;;;;;;;;;;13.14;34.43;100716.84;4485602;31;33532;-64
2022/03/28 00:12:31;;;;;;;;;;;;;;;13.33;33.84;100705.69;4481958;31;33988;-64
2022/03/28 00:14:59;;;;;;;;;;;;;;;12.92;34.53;100712.09;4483520;31;34210;-63
2022/03/28 00:17:31;;;;;;;;;;;;;;;13.08;33.94;100709.19;4483158;31;34934;-64
2022/03/28 00:19:59;;;;;;;;;;;;;;;13.11;33.71;100710.81;4486954;31;32237;-65
2022/03/28 00:22:28;;;;;;;;;;;;;;;13.08;34.01;100717.25;4485217;31;33927;-63
2022/03/28 00:24:56;;;;;;;;;;;;;;;12.85;33.48;100707.25;4486920;31;33505;-65
2022/03/28 00:27:23;;;;;;;;;;;;;;;12.65;33.82;100712.16;4484835;31;34384;-61
2022/03/28 00:29:51;;;;;;;;;;;;;;;12.77;33.59;100705.06;4489270;31;33326;-63
2022/03/28 00:32:18;;;;;;;;;;;;;;;12.63;33.74;100702.50;4492215;31;35269;-63
2022/03/28 00:34:45;;;;;;;;;;;;;;;12.61;34.43;100701.72;4492464;31;33085;-61
2022/03/28 00:37:13;;;;;;;;;;;;;;;11.28;36.42;100700.53;4484647;32;33515;-61
2022/03/28 00:39:40;;;;;;;;;;;;;;;11.94;35.46;100690.97;4486662;31;33773;-62
2022/03/28 00:42:08;;;;;;;;;;;;;;;12.17;34.83;100690.34;4484335;31;33966;-61
2022/03/28 00:44:36;;;;;;;;;;;;;;;12.08;35.37;100685.56;4487043;31;34922;-61
2022/03/28 00:47:04;;;;;;;;;;;;;;;11.63;36.17;100684.91;4484756;32;34269;-60
2022/03/28 00:49:32;;;;;;;;;;;;;;;11.97;35.95;100686.25;4488692;31;34641;-60
2022/03/28 00:51:59;;;;;;;;;;;;;;;11.70;36.40;100680.00;4495955;31;34025;-64
2022/03/28 00:54:26;;;;;;;;;;;;;;;12.30;35.17;100676.97;4494630;31;35554;-62
2022/03/28 00:56:54;;;;;;;;;;;;;;;12.32;35.07;100675.00;4473766;32;33051;-62
2022/03/28 00:59:22;;;;;;;;;;;;;;;12.33;34.91;100674.06;4488448;31;33646;-63
2022/03/28 01:01:50;;;;;;;;;;;;;;;12.55;34.43;100668.97;4484110;31;34435;-62
2022/03/28 01:04:18;;;;;;;;;;;;;;;12.66;33.95;100670.91;4484017;31;34044;-63
2022/03/28 01:06:46;;;;;;;;;;;;;;;12.57;34.24;100666.16;4484897;31;33103;-62
2022/03/28 01:09:13;;;;;;;;;;;;;;;12.63;34.19;100664.88;4492084;31;34141;-61
2022/03/28 01:11:42;;;;;;;;;;;;;;;12.04;35.30;100659.91;4469710;31;34860;-62
2022/03/28 01:14:09;;;;;;;;;;;;;;;12.42;34.47;100661.81;4486356;31;34270;-62
2022/03/28 01:18:05;;;;;;;;;;;;;;;12.59;34.03;100658.88;4475051;31;34134;-62
2022/03/28 01:19:24;;;;;;;;;;;;;;;12.66;34.11;100653.94;4483807;31;33449;-63
2022/03/28 01:21:52;;;;;;;;;;;;;;;12.80;33.59;100654.69;4486654;31;33982;-61
2022/03/28 01:24:19;;;;;;;;;;;;;;;12.83;33.46;100661.66;4492246;31;34551;-62
2022/03/28 01:26:48;;;;;;;;;;;;;;;12.73;33.33;100650.72;4485530;31;35216;-60
2022/03/28 01:29:16;;;;;;;;;;;;;;;12.67;33.22;100644.91;4484190;31;33337;-61
2022/03/28 01:31:43;;;;;;;;;;;;;;;12.28;33.67;100644.84;4487287;31;32941;-62
2022/03/28 01:34:18;;;;;;;;;;;;;;;12.40;33.63;100643.16;4486842;31;34527;-63
2022/03/28 01:36:47;;;;;;;;;;;;;;;12.04;34.22;100644.66;4485193;31;34369;-63
2022/03/28 01:39:14;;;;;;;;;;;;;;;11.77;35.14;100635.72;4487084;31;34341;-62
2022/03/28 01:41:42;;;;;;;;;;;;;;;11.46;35.38;100629.69;4491026;31;34599;-62
2022/03/28 01:44:10;;;;;;;;;;;;;;;11.14;35.79;100648.66;4489668;31;33745;-62
2022/03/28 01:46:41;;;;;;;;;;;;;;;11.40;35.04;100640.81;4491249;31;34614;-62
2022/03/28 01:49:09;;;;;;;;;;;;;;;11.69;34.28;100628.19;4489402;31;33694;-62
2022/03/28 01:51:36;;;;;;;;;;;;;;;11.70;34.09;100631.72;4485483;31;34369;-63
2022/03/28 01:54:04;;;;;;;;;;;;;;;11.49;34.77;100631.28;4489715;31;33421;-63
2022/03/28 01:56:35;;;;;;;;;;;;;;;11.63;34.81;100629.44;4499441;31;34264;-62
2022/03/28 01:59:03;;;;;;;;;;;;;;;11.63;35.15;100624.06;4488623;31;34980;-62
2022/03/28 02:01:31;;;;;;;;;;;;;;;11.94;34.63;100630.16;4485309;31;34230;-62
2022/03/28 02:03:59;;;;;;;;;;;;;;;11.75;34.64;100619.75;4488090;31;34596;-64
2022/03/28 02:06:27;;;;;;;;;;;;;;;12.16;33.49;100621.50;4490357;31;34394;-62
2022/03/28 02:08:54;;;;;;;;;;;;;;;12.51;32.27;100623.63;4484951;31;33616;-63
2022/03/28 02:11:22;;;;;;;;;;;;;;;12.47;32.07;100622.12;4488125;31;34927;-62
2022/03/28 02:13:49;;;;;;;;;;;;;;;12.13;33.68;100621.72;4492651;31;35430;-63
2022/03/28 02:16:17;;;;;;;;;;;;;;;12.37;32.73;100621.88;4487757;31;34166;-62
2022/03/28 02:18:45;;;;;;;;;;;;;;;12.41;32.28;100620.69;4489563;31;32328;-63
2022/03/28 02:21:12;;;;;;;;;;;;;;;12.16;32.86;100613.44;4498267;31;34392;-63
2022/03/28 02:23:40;;;;;;;;;;;;;;;12.09;32.75;100612.16;4485941;31;34082;-63
2022/03/28 02:26:07;;;;;;;;;;;;;;;11.99;32.78;100611.06;4487960;31;34307;-63
2022/03/28 02:28:35;;;;;;;;;;;;;;;11.92;33.32;100610.59;4486051;31;33307;-62
2022/03/28 02:31:06;;;;;;;;;;;;;;;12.07;32.22;100608.69;4485421;31;34321;-63
2022/03/28 02:33:34;;;;;;;;;;;;;;;12.14;32.09;100609.19;4470736;31;33651;-62
2022/03/28 02:36:02;;;;;;;;;;;;;;;11.99;32.91;100611.06;4489795;31;34631;-62
2022/03/28 02:38:29;;;;;;;;;;;;;;;12.15;31.83;100611.75;4491090;31;33686;-62
2022/03/28 02:40:59;;;;;;;;;;;;;;;11.96;32.22;100613.94;4484538;31;34316;-63
2022/03/28 02:43:27;;;;;;;;;;;;;;;11.95;32.12;100613.09;4490266;31;34856;-62
2022/03/28 02:45:54;;;;;;;;;;;;;;;11.80;33.01;100617.59;4486486;31;35303;-62
2022/03/28 02:48:22;;;;;;;;;;;;;;;11.94;32.20;100614.06;4491587;31;33535;-61
2022/03/28 02:50:50;;;;;;;;;;;;;;;11.72;33.31;100613.69;4498933;31;34394;-63
2022/03/28 02:53:17;;;;;;;;;;;;;;;11.57;33.52;100615.56;4487768;31;35182;-62
2022/03/28 02:55:45;;;;;;;;;;;;;;;11.92;32.18;100605.25;4486170;31;35681;-62
2022/03/28 02:58:12;;;;;;;;;;;;;;;11.71;32.84;100599.44;4485985;31;33834;-62
2022/03/28 03:00:40;;;;;;;;;;;;;;;11.54;33.25;100603.22;4484979;31;35763;-63
2022/03/28 03:03:08;;;;;;;;;;;;;;;11.49;33.83;100599.97;4483945;31;35260;-63
2022/03/28 03:05:36;;;;;;;;;;;;;;;11.81;32.73;100603.25;4496162;31;34467;-62
2022/03/28 03:08:04;;;;;;;;;;;;;;;12.13;32.03;100613.66;4498556;31;33661;-62
2022/03/28 03:10:33;;;;;;;;;;;;;;;12.09;31.96;100601.41;4484468;31;34183;-62
2022/03/28 03:13:00;;;;;;;;;;;;;;;12.05;32.06;100600.78;4485687;31;35489;-62
2022/03/28 03:15:28;;;;;;;;;;;;;;;12.05;31.71;100605.28;4494057;31;34590;-61
2022/03/28 03:17:57;;;;;;;;;;;;;;;11.82;32.26;100602.28;4484750;31;34641;-62
2022/03/28 03:20:27;;;;;;;;;;;;;;;11.93;31.87;100598.03;4492190;31;35210;-61
2022/03/28 03:22:54;;;;;;;;;;;;;;;11.83;31.86;100603.13;4492482;31;35115;-61
2022/03/28 03:25:23;;;;;;;;;;;;;;;11.64;32.42;100601.66;4490483;31;33349;-61
2022/03/28 03:27:51;;;;;;;;;;;;;;;11.40;33.13;100604.13;4492240;31;33355;-61
2022/03/28 03:30:19;;;;;;;;;;;;;;;11.52;32.21;100601.59;4489195;31;35052;-61
2022/03/28 03:32:48;;;;;;;;;;;;;;;11.33;32.58;100588.53;4483294;31;34095;-62
2022/03/28 03:35:16;;;;;;;;;;;;;;;11.29;32.46;100603.09;4484577;31;34334;-60
2022/03/28 03:37:45;;;;;;;;;;;;;;;11.25;32.50;100601.56;4483024;31;32311;-64
2022/03/28 03:40:14;;;;;;;;;;;;;;;11.23;32.89;100598.97;4483651;31;32951;-64
2022/03/28 03:42:43;;;;;;;;;;;;;;;11.28;32.64;100591.50;4485721;31;34396;-63
2022/03/28 03:45:14;;;;;;;;;;;;;;;11.42;32.42;100590.63;4481060;31;33922;-63
2022/03/28 03:47:44;;;;;;;;;;;;;;;11.46;32.63;100585.91;4479976;31;33756;-63
2022/03/28 03:50:13;;;;;;;;;;;;;;;11.54;32.48;100587.13;4479143;31;32789;-64
2022/03/28 03:52:40;;;;;;;;;;;;;;;11.18;32.97;100585.87;4487228;31;34459;-65
2022/03/28 03:55:09;;;;;;;;;;;;;;;10.67;33.72;100595.38;4484413;31;35091;-65
2022/03/28 03:57:38;;;;;;;;;;;;;;;10.87;33.31;100589.63;4484886;31;33670;-63
2022/03/28 04:00:08;;;;;;;;;;;;;;;10.58;34.27;100594.13;4487014;31;35143;-63
2022/03/28 04:02:39;;;;;;;;;;;;;;;10.98;33.39;100585.41;4490142;31;33050;-65
2022/03/28 04:05:09;;;;;;;;;;;;;;;11.11;32.92;100587.25;4489041;31;33235;-63
2022/03/28 04:07:37;;;;;;;;;;;;;;;10.91;33.51;100593.88;4489954;31;32026;-63
2022/03/28 04:10:07;;;;;;;;;;;;;;;11.13;33.15;100584.44;4480663;31;34406;-63
2022/03/28 04:12:37;;;;;;;;;;;;;;;11.10;32.99;100590.00;4479223;31;33051;-64
2022/03/28 04:15:07;;;;;;;;;;;;;;;11.03;33.02;100588.66;4488583;31;33490;-65
2022/03/28 04:17:43;;;;;;;;;;;;;;;10.81;33.63;100586.47;4484472;31;33353;-63
2022/03/28 04:20:13;;;;;;;;;;;;;;;10.98;33.18;100586.31;4490893;31;33890;-64
2022/03/28 04:22:42;;;;;;;;;;;;;;;10.96;32.99;100590.88;4484433;31;34417;-64
2022/03/28 04:25:10;;;;;;;;;;;;;;;10.59;33.92;100587.78;4489200;31;34495;-63
2022/03/28 04:27:39;;;;;;;;;;;;;;;10.87;33.48;100581.59;4484768;31;34021;-65
2022/03/28 04:30:08;;;;;;;;;;;;;;;10.99;33.24;100581.78;4485445;31;35273;-63
2022/03/28 04:32:36;;;;;;;;;;;;;;;10.85;33.50;100582.63;4487544;31;34296;-65
2022/03/28 04:35:05;;;;;;;;;;;;;;;10.82;33.66;100577.47;4498204;31;33014;-62
2022/03/28 04:37:34;;;;;;;;;;;;;;;10.92;33.47;100573.28;4489741;31;34339;-63
2022/03/28 04:40:03;;;;;;;;;;;;;;;11.01;33.38;100582.53;4490483;31;33957;-63
2022/03/28 04:42:32;;;;;;;;;;;;;;;10.95;33.24;100578.47;4491631;31;34119;-64
2022/03/28 04:45:00;;;;;;;;;;;;;;;10.88;33.30;100567.28;4473910;31;34107;-63
2022/03/28 04:47:29;;;;;;;;;;;;;;;10.92;33.40;100566.09;4488639;31;32177;-64
2022/03/28 04:49:58;;;;;;;;;;;;;;;10.72;33.67;100578.06;4484315;31;34694;-65
2022/03/28 04:52:27;;;;;;;;;;;;;;;10.79;33.43;100581.22;4490786;31;34111;-64
2022/03/28 04:54:55;;;;;;;;;;;;;;;10.86;33.41;100579.87;4482454;31;33454;-64
2022/03/28 04:57:23;;;;;;;;;;;;;;;10.54;34.94;100581.88;4479369;31;34286;-64
2022/03/28 04:59:51;;;;;;;;;;;;;;;10.67;34.90;100572.13;4483116;31;34259;-64
2022/03/28 05:02:19;;;;;;;;;;;;;;;11.09;33.52;100577.56;4490304;31;33202;-66
2022/03/28 05:04:49;;;;;;;;;;;;;;;11.17;33.12;100583.28;4482521;31;35527;-64
2022/03/28 05:07:25;;;;;;;;;;;;;;;10.87;34.35;100581.59;4481506;31;33402;-64
2022/03/28 05:09:53;;;;;;;;;;;;;;;11.27;32.75;100589.81;4484323;31;33795;-63
2022/03/28 05:12:22;;;;;;;;;;;;;;;11.31;32.71;100577.91;4482842;31;36448;-65
2022/03/28 05:14:51;;;;;;;;;;;;;;;11.23;33.55;100580.22;4485715;31;33385;-63
2022/03/28 05:17:21;;;;;;;;;;;;;;;11.41;33.33;100587.06;4488834;31;32037;-63
2022/03/28 05:19:49;;;;;;;;;;;;;;;11.68;32.84;100590.72;4489920;31;32852;-64
2022/03/28 05:22:18;;;;;;;;;;;;;;;11.88;32.53;100572.41;4482582;31;34248;-63
2022/03/28 05:24:47;;;;;;;;;;;;;;;11.96;32.65;100576.37;4482153;31;35208;-64
2022/03/28 05:27:15;;;;;;;;;;;;;;;12.06;32.15;100574.78;4485413;31;32442;-63
2022/03/28 05:29:44;;;;;;;;;;;;;;;12.22;32.43;100572.78;4487355;31;34319;-64
2022/03/28 05:32:13;;;;;;;;;;;;;;;11.60;34.02;100578.69;4492011;31;34381;-64
2022/03/28 05:34:41;;;;;;;;;;;;;;;12.61;32.17;100573.66;4482009;31;34089;-65
2022/03/28 05:37:10;;;;;;;;;;;;;;;13.01;32.55;100573.53;4487167;31;33624;-65
2022/03/28 05:39:39;;;;;;;;;;;;;;;14.13;30.21;100576.91;4489492;31;34349;-65
2022/03/28 05:42:08;;;;;;;;;;;;;;;14.34;29.53;100573.53;4482647;31;33012;-66
2022/03/28 05:44:38;;;;;;;;;;;;;;;14.89;28.88;100572.78;4468894;31;34766;-65
2022/03/28 05:47:07;;;;;;;;;;;;;;;14.83;28.60;100575.09;4482768;31;35444;-66
2022/03/28 05:49:36;;;;;;;;;;;;;;;14.35;28.82;100577.91;4484269;31;32795;-63
2022/03/28 05:52:08;;;;;;;;;;;;;;;14.20;29.13;100579.97;4480740;32;33051;-65
2022/03/28 05:54:44;;;;;;;;;;;;;;;14.15;29.18;100584.84;4483296;31;33534;-66
2022/03/28 05:57:16;;;;;;;;;;;;;;;14.02;28.96;100584.06;4488825;31;34510;-64
2022/03/28 05:59:45;;;;;;;;;;;;;;;13.89;29.82;100578.75;4484929;31;33991;-64
2022/03/28 06:02:13;;;;;;;;;;;;;;;14.09;29.46;100574.53;4480001;31;34636;-63
2022/03/28 06:04:42;;;;;;;;;;;;;;;13.95;30.48;100572.91;4486360;31;35167;-63
2022/03/28 06:07:10;;;;;;;;;;;;;;;13.97;30.47;100571.81;4484321;31;33360;-63
2022/03/28 06:09:38;;;;;;;;;;;;;;;14.29;29.59;100573.88;4482132;31;33886;-67
2022/03/28 06:12:07;;;;;;;;;;;;;;;14.11;30.54;100573.44;4487915;31;34373;-63
2022/03/28 06:14:35;;;;;;;;;;;;;;;14.39;30.29;100568.66;4490196;31;34444;-64
2022/03/28 06:17:03;;;;;;;;;;;;;;;14.46;30.24;100572.56;4488021;31;32342;-64
2022/03/28 06:19:31;;;;;;;;;;;;;;;14.60;29.34;100568.81;4490596;31;33878;-65
2022/03/28 06:22:00;;;;;;;;;;;;;;;14.73;29.61;100560.62;4492252;31;35440;-65
2022/03/28 06:24:28;;;;;;;;;;;;;;;14.93;28.42;100565.31;4482050;31;34164;-64
2022/03/28 06:26:57;;;;;;;;;;;;;;;14.58;27.79;100562.72;4488577;31;32195;-65
2022/03/28 06:29:25;;;;;;;;;;;;;;;14.99;27.17;100559.44;4493811;31;35403;-64
2022/03/28 06:31:53;;;;;;;;;;;;;;;15.20;26.78;100558.66;4494268;31;35140;-65
2022/03/28 06:34:22;;;;;;;;;;;;;;;15.05;28.12;100556.22;4484845;31;33087;-67
2022/03/28 06:36:51;;;;;;;;;;;;;;;15.23;26.98;100559.28;4487577;31;33621;-66
2022/03/28 06:39:24;;;;;;;;;;;;;;;15.55;26.58;100558.47;4487663;31;33984;-67
2022/03/28 06:42:01;;;;;;;;;;;;;;;15.70;25.73;100553.69;4482670;31;34395;-65
2022/03/28 06:44:30;;;;;;;;;;;;;;;15.92;26.18;100553.59;4491482;31;33709;-66
2022/03/28 06:46:59;;;;;;;;;;;;;;;15.56;26.32;100555.63;4480362;31;33190;-66
2022/03/28 06:49:29;;;;;;;;;;;;;;;15.99;26.58;100556.66;4483701;31;33771;-65
2022/03/28 06:51:56;;;;;;;;;;;;;;;15.35;27.03;100562.81;4488807;31;34318;-66
2022/03/28 06:54:25;;;;;;;;;;;;;;;15.77;27.13;100550.34;4488915;31;34550;-65
2022/03/28 06:56:53;;;;;;;;;;;;;;;15.74;26.64;100561.38;4484956;31;33797;-65
2022/03/28 06:59:23;;;;;;;;;;;;;;;15.57;26.44;100559.22;4482793;31;33965;-65
2022/03/28 07:01:51;;;;;;;;;;;;;;;15.85;26.89;100549.69;4484316;31;35040;-67
2022/03/28 07:04:21;;;;;;;;;;;;;;;15.11;26.04;100562.97;4483974;31;34080;-64
2022/03/28 07:06:49;;;;;;;;;;;;;;;15.51;25.97;100552.47;4484239;31;34255;-66
2022/03/28 07:09:17;;;;;;;;;;;;;;;15.51;26.21;100543.53;4492238;31;34974;-65
2022/03/28 07:11:45;;;;;;;;;;;;;;;15.48;25.98;100544.63;4485672;31;35764;-67
2022/03/28 07:14:16;;;;;;;;;;;;;;;15.08;25.89;100538.94;4488736;31;34482;-67
2022/03/28 07:16:44;;;;;;;;;;;;;;;14.94;24.39;100542.75;4484190;31;33262;-67
2022/03/28 07:19:13;;;;;;;;;;;;;;;15.05;24.13;100536.50;4481877;31;35201;-65
2022/03/28 07:21:41;;;;;;;;;;;;;;;13.58;26.13;100542.50;4480088;31;34587;-66
2022/03/28 07:24:10;;;;;;;;;;;;;;;14.76;25.15;100533.44;4484112;31;34819;-63
2022/03/28 07:26:40;;;;;;;;;;;;;;;14.61;26.87;100530.16;4485469;31;33675;-66
2022/03/28 07:29:13;;;;;;;;;;;;;;;14.83;24.45;100531.97;4483360;31;34287;-65
2022/03/28 07:31:43;;;;;;;;;;;;;;;14.93;24.86;100532.97;4486116;31;34240;-63
2022/03/28 07:36:58;;;;;;;;;;;;;;;15.11;24.49;100533.31;4490136;31;32341;-66
2022/03/28 07:39:29;;;;;;;;;;;;;;;15.60;24.16;100529.25;4486393;31;33994;-65
2022/03/28 07:41:58;;;;;;;;;;;;;;;14.85;25.80;100538.97;4488126;31;32993;-64
2022/03/28 07:44:29;;;;;;;;;;;;;;;15.61;24.00;100531.00;4484611;31;33257;-65
2022/03/28 07:47:00;;;;;;;;;;;;;;;15.75;24.41;100527.16;4486805;31;31809;-66
2022/03/28 07:49:30;;;;;;;;;;;;;;;15.55;23.37;100529.66;4486736;31;34158;-65
2022/03/28 07:51:59;;;;;;;;;;;;;;;16.36;22.62;100518.37;4482650;31;32589;-64
2022/03/28 07:54:32;;;;;;;;;;;;;;;17.21;21.43;100523.47;4488554;31;33294;-64
2022/03/28 07:57:01;;;;;;;;;;;;;;;18.14;20.79;100522.13;4486270;31;32589;-65
2022/03/28 07:59:30;;;;;;;;;;;;;;;19.87;20.00;100510.66;4491085;31;32740;-65
2022/03/28 08:02:02;;;;;;;;;;;;;;;20.57;18.73;100513.38;4488069;31;33978;-65
2022/03/28 08:04:33;;;;;;;;;;;;;;;21.85;17.21;100517.78;4487138;31;34205;-66
2022/03/28 08:07:05;;;;;;;;;;;;;;;22.80;16.84;100514.47;4488175;31;32207;-65
2022/03/28 08:09:37;;;;;;;;;;;;;;;22.66;16.56;100513.28;4488063;31;34123;-65
2022/03/28 08:12:07;;;;;;;;;;;;;;;22.93;18.13;100503.88;4488977;31;33162;-65
2022/03/28 08:14:36;;;;;;;;;;;;;;;22.27;17.40;100507.75;4489373;31;34574;-66
2022/03/28 08:17:06;;;;;;;;;;;;;;;22.77;17.13;100499.28;4489010;31;35044;-65
2022/03/28 08:19:35;;;;;;;;;;;;;;;22.87;17.01;100492.78;4482920;31;32800;-63
2022/03/28 08:22:04;;;;;;;;;;;;;;;21.67;18.06;100500.75;4477177;31;35855;-64
2022/03/28 08:24:33;;;;;;;;;;;;;;;22.00;17.83;100501.59;4484450;31;33866;-63
2022/03/28 08:27:02;;;;;;;;;;;;;;;22.32;18.00;100500.75;4482952;31;33500;-64
2022/03/28 08:29:32;;;;;;;;;;;;;;;22.22;18.43;100496.53;4489766;31;34061;-63
2022/03/28 08:32:02;;;;;;;;;;;;;;;21.63;19.62;100505.66;4485853;31;33118;-65
2022/03/28 08:34:37;;;;;;;;;;;;;;;21.48;19.97;100492.88;4498039;31;32851;-62
2022/03/28 08:37:09;;;;;;;;;;;;;;;21.40;20.38;100490.97;4494128;31;33483;-63
2022/03/28 08:39:38;;;;;;;;;;;;;;;20.91;21.01;100480.75;4486897;31;33957;-63
2022/03/28 08:42:06;;;;;;;;;;;;;;;21.26;21.05;100478.00;4496834;31;32979;-63
2022/03/28 08:44:37;;;;;;;;;;;;;;;21.43;21.43;100481.63;4485738;31;33217;-63
2022/03/28 08:47:06;;;;;;;;;;;;;;;20.20;22.62;100483.72;4496590;31;32386;-63
2022/03/28 08:49:35;;;;;;;;;;;;;;;19.51;22.52;100483.44;4487696;31;34304;-62
2022/03/28 08:52:04;;;;;;;;;;;;;;;19.59;23.18;100477.25;4484108;31;32486;-62
2022/03/28 08:54:34;;;;;;;;;;;;;;;19.74;24.03;100474.84;4484978;31;33535;-62
2022/03/28 08:57:04;;;;;;;;;;;;;;;19.89;23.83;100476.00;4486418;31;33105;-66
2022/03/28 08:59:33;;;;;;;;;;;;;;;20.38;23.15;100470.06;4486033;31;34106;-62
2022/03/28 09:02:03;;;;;;;;;;;;;;;20.90;23.08;100470.91;4484419;31;33288;-65
2022/03/28 09:04:40;;;;;;;;;;;;;;;20.73;23.33;100466.38;4484740;31;33526;-64
2022/03/28 09:07:09;;;;;;;;;;;;;;;20.69;23.17;100465.00;4487678;31;33589;-65
2022/03/28 09:09:38;;;;;;;;;;;;;;;20.93;23.51;100461.56;4494021;31;34180;-64
2022/03/28 09:12:09;;;;;;;;;;;;;;;20.40;23.38;100466.19;4476287;31;34494;-66
2022/03/28 09:14:40;;;;;;;;;;;;;;;19.60;24.74;100465.38;4487356;31;33364;-64
2022/03/28 09:17:13;;;;;;;;;;;;;;;19.38;24.67;100468.53;4487625;31;34731;-62
2022/03/28 09:19:44;;;;;;;;;;;;;;;18.52;26.14;100457.97;4494207;31;32699;-66
2022/03/28 09:22:13;;;;;;;;;;;;;;;18.91;25.51;100457.81;4495690;31;34294;-62
2022/03/28 09:24:44;;;;;;;;;;;;;;;19.47;25.49;100456.75;4488761;31;33073;-62
2022/03/28 09:27:16;;;;;;;;;;;;;;;19.70;24.90;100457.16;4490402;31;33498;-67
2022/03/28 09:30:01;;;;;;;;;;;;;;;18.51;26.21;100448.16;4488321;31;33143;-62
2022/03/28 09:32:31;;;;;;;;;;;;;;;18.84;25.88;100450.31;4485085;31;34322;-65
2022/03/28 09:35:06;;;;;;;;;;;;;;;19.02;25.58;100442.22;4486541;31;33220;-62
2022/03/28 09:37:58;;;;;;;;;;;;;;;19.11;25.60;100440.44;4491086;31;33379;-62
2022/03/28 09:40:30;;;;;;;;;;;;;;;19.65;25.15;100432.38;4496123;31;32866;-62
2022/03/28 09:42:59;;;;;;;;;;;;;;;19.76;25.19;100423.94;4481695;31;32657;-65
2022/03/28 09:45:30;;;;;;;;;;;;;;;20.60;25.49;100423.31;4492145;31;33194;-61
2022/03/28 09:48:04;;;;;;;;;;;;;;;20.52;25.39;100420.56;4484719;31;32386;-61
2022/03/28 09:50:35;;;;;;;;;;;;;;;19.35;26.91;100420.00;4494075;31;33076;-61
2022/03/28 09:53:10;;;;;;;;;;;;;;;20.15;26.04;100410.81;4487948;31;34315;-61
2022/03/28 09:55:49;;;;;;;;;;;;;;;21.21;24.89;100406.84;4487133;31;34659;-62
2022/03/28 09:58:32;;;;;;;;;;;;;;;21.00;25.31;100408.16;4494104;31;33450;-61
2022/03/28 10:01:01;;;;;;;;;;;;;;;20.61;26.19;100406.00;4488227;31;33884;-61
2022/03/28 10:03:32;;;;;;;;;;;;;;;20.19;26.29;100400.47;4486449;31;32617;-62
2022/03/28 10:06:02;;;;;;;;;;;;;;;20.61;26.22;100392.41;4492448;31;34756;-66
2022/03/28 10:08:34;;;;;;;;;;;;;;;20.73;26.25;100383.94;4484936;31;32669;-63
2022/03/28 10:11:03;;;;;;;;;;;;;;;20.23;27.07;100383.69;4488883;31;33484;-63
2022/03/28 10:13:33;;;;;;;;;;;;;;;19.99;27.08;100378.09;4488392;31;33964;-63
2022/03/28 10:16:02;;;;;;;;;;;;;;;20.20;27.14;100389.44;4492511;31;34395;-65
2022/03/28 10:18:34;;;;;;;;;;;;;;;20.73;26.14;100379.34;4484957;31;32004;-63
2022/03/28 10:21:09;;;;;;;;;;;;;;;20.51;26.40;100377.19;4489057;31;32892;-63
2022/03/28 10:23:55;;;;;;;;;;;;;;;21.32;25.85;100368.41;4484391;31;34090;-64
2022/03/28 10:26:25;;;;;;;;;;;;;;;22.07;24.90;100363.59;4486875;31;33965;-63
2022/03/28 10:29:07;;;;;;;;;;;;;;;21.23;25.56;100361.25;4483760;31;33006;-63
2022/03/28 10:31:51;;;;;;;;;;;;;;;20.35;26.84;100356.22;4484234;31;34237;-63
2022/03/28 10:34:41;;;;;;;;;;;;;;;21.44;25.77;100350.72;4483945;31;33919;-62
2022/03/28 10:37:25;;;;;;;;;;;;;;;20.88;26.44;100339.59;4487185;31;35459;-63
2022/03/28 10:40:13;;;;;;;;;;;;;;;20.47;27.28;100350.31;4492591;31;32559;-63
2022/03/28 10:43:00;;;;;;;;;;;;;;;20.88;26.72;100330.59;4485985;31;33869;-63
2022/03/28 10:45:34;;;;;;;;;;;;;;;20.28;27.56;100331.53;4492794;31;34988;-63
2022/03/28 10:48:04;;;;;;;;;;;;;;;20.56;27.40;100329.47;4487100;31;34244;-63
2022/03/28 10:50:36;;;;;;;;;;;;;;;20.49;27.68;100320.25;4491660;31;34449;-64
2022/03/28 10:53:10;;;;;;;;;;;;;;;20.59;27.88;100315.56;4491182;31;34068;-63
2022/03/28 10:55:44;;;;;;;;;;;;;;;20.92;27.62;100311.03;4486957;31;33526;-62
2022/03/28 10:58:20;;;;;;;;;;;;;;;20.79;27.63;100305.22;4489489;31;33993;-63
2022/03/28 11:01:12;;;;;;;;;;;;;;;20.34;28.35;100303.72;4490832;31;32616;-63
2022/03/28 11:03:44;;;;;;;;;;;;;;;21.08;27.50;100290.31;4487221;31;33801;-63
2022/03/28 11:06:12;;;;;;;;;;;;;;;21.44;27.50;100279.09;4486258;31;34232;-66
2022/03/28 11:08:42;;;;;;;;;;;;;;;21.58;27.01;100283.84;4484798;31;33149;-63
2022/03/28 11:11:14;;;;;;;;;;;;;;;21.86;26.51;100268.78;4482840;31;33561;-62
2022/03/28 11:13:42;;;;;;;;;;;;;;;21.83;26.56;100276.47;4485892;31;35714;-63
2022/03/28 11:16:17;;;;;;;;;;;;;;;21.39;26.99;100268.72;4486175;31;35457;-65
2022/03/28 11:19:07;;;;;;;;;;;;;;;21.33;27.50;100269.38;4482969;31;34457;-62
2022/03/28 11:21:54;;;;;;;;;;;;;;;22.04;26.68;100263.09;4483175;31;33630;-62
2022/03/28 11:24:41;;;;;;;;;;;;;;;21.87;26.71;100251.41;4470254;31;34303;-62
2022/03/28 11:27:11;;;;;;;;;;;;;;;22.80;25.82;100244.31;4480792;31;33556;-64
2022/03/28 11:29:42;;;;;;;;;;;;;;;22.56;25.75;100226.22;4488699;31;33329;-63
2022/03/28 11:32:18;;;;;;;;;;;;;;;22.38;26.22;100225.66;4489164;31;32356;-61
2022/03/28 11:34:49;;;;;;;;;;;;;;;21.80;26.54;100225.06;4484621;31;34177;-65
2022/03/28 11:37:23;;;;;;;;;;;;;;;23.08;25.02;100213.72;4487428;31;35454;-62
2022/03/28 11:39:54;;;;;;;;;;;;;;;23.57;24.28;100205.91;4484747;31;35114;-62
2022/03/28 11:42:28;;;;;;;;;;;;;;;22.14;26.04;100202.06;4483580;31;32870;-63
2022/03/28 11:45:12;;;;;;;;;;;;;;;21.61;27.50;100201.78;4485801;31;32946;-63
2022/03/28 11:47:50;;;;;;;;;;;;;;;21.29;27.45;100195.38;4484556;31;33548;-62
2022/03/28 11:50:26;;;;;;;;;;;;;;;21.96;27.10;100186.84;4486328;31;35444;-62
2022/03/28 11:52:57;;;;;;;;;;;;;;;22.50;26.07;100175.97;4474982;31;33606;-65
2022/03/28 11:55:30;;;;;;;;;;;;;;;22.82;25.76;100174.00;4487851;31;34431;-62
2022/03/28 11:58:16;;;;;;;;;;;;;;;23.45;24.97;100170.00;4485369;31;33379;-61
2022/03/28 12:00:50;;;;;;;;;;;;;;;23.76;24.42;100149.03;4490318;31;34328;-63
2022/03/28 12:03:22;;;;;;;;;;;;;;;23.52;25.13;100145.50;4486085;31;33752;-64
2022/03/28 12:05:59;;;;;;;;;;;;;;;23.19;25.14;100139.56;4483874;31;33007;-62
2022/03/28 12:08:32;;;;;;;;;;;;;;;23.11;25.01;100134.19;4490975;31;33904;-62
2022/03/28 12:11:03;;;;;;;;;;;;;;;23.68;24.42;100122.59;4483500;31;34483;-63
2022/03/28 12:13:33;;;;;;;;;;;;;;;23.27;24.86;100125.81;4484016;31;33680;-63
2022/03/28 12:16:00;;;;;;;;;;;;;;;22.48;25.63;100128.09;4471113;31;33412;-63
2022/03/28 12:18:29;;;;;;;;;;;;;;;23.06;25.14;100118.37;4488228;31;34143;-62
2022/03/28 12:20:58;;;;;;;;;;;;;;;23.32;24.96;100112.44;4490087;31;36529;-63
2022/03/28 12:23:27;;;;;;;;;;;;;;;22.08;25.82;100106.34;4491860;31;33483;-63
2022/03/28 12:26:05;;;;;;;;;;;;;;;21.16;27.13;100097.91;4489162;31;34438;-62
2022/03/28 12:28:38;;;;;;;;;;;;;;;22.92;25.88;100097.31;4488024;31;34597;-60
2022/03/28 12:31:06;;;;;;;;;;;;;;;23.27;24.73;100089.47;4483882;31;34346;-63
2022/03/28 12:33:41;;;;;;;;;;;;;;;22.58;25.47;100086.91;4489766;31;32596;-62
2022/03/28 12:36:10;;;;;;;;;;;;;;;21.76;26.28;100079.28;4500063;31;34290;-61
2022/03/28 12:38:40;;;;;;;;;;;;;;;21.85;26.61;100078.22;4485720;31;34348;-62
2022/03/28 12:41:11;;;;;;;;;;;;;;;21.39;27.02;100065.34;4499304;31;34296;-62
2022/03/28 12:43:40;;;;;;;;;;;;;;;21.11;27.45;100055.91;4486507;31;33390;-61
2022/03/28 12:46:10;;;;;;;;;;;;;;;21.94;26.73;100054.50;4480137;31;32977;-63
2022/03/28 12:48:43;;;;;;;;;;;;;;;21.38;27.33;100051.94;4488908;31;35226;-63
2022/03/28 12:51:11;;;;;;;;;;;;;;;22.51;26.04;100044.00;4488585;31;34306;-62
2022/03/28 12:53:39;;;;;;;;;;;;;;;23.08;25.35;100033.53;4496644;31;31913;-60